Time;durP1;ratioP1;P1;durP2;ratioP2;P2;SDS_P1;SDS_P2;PMS_P1;PMS_P2;Temp;Humidity;BMP_temperature;BMP_pressure;BME280_temperature;BME280_humidity;BME280_pressure;Samples;Min_cycle;Max_cycle;Signal;HPM_P1;HPM_P2
2023/06/24 00:00:36;;;;;;;6.87;4.80;;;17.60;28.40;;;;;;5085694;28;20224;-56
2023/06/24 00:03:07;;;;;;;5.27;4.87;;;17.50;29.50;;;;;;5093900;28;20207;-56
2023/06/24 00:05:38;;;;;;;4.80;4.40;;;17.40;39.20;;;;;;5092992;28;20225;-56
2023/06/24 00:08:09;;;;;;;5.20;4.70;;;17.40;49.20;;;;;;5091749;28;20211;-56
2023/06/24 00:10:39;;;;;;;4.80;4.27;;;17.40;47.30;;;;;;5084996;28;20223;-56
2023/06/24 00:13:07;;;;;;;5.23;4.83;;;17.30;25.70;;;;;;5092305;28;20674;-56
2023/06/24 00:15:42;;;;;;;9.00;4.43;;;17.20;27.90;;;;;;5082957;28;20223;-56
2023/06/24 00:18:10;;;;;;;5.33;3.93;;;17.20;6.10;;;;;;5076599;28;20195;-56
2023/06/24 00:20:43;;;;;;;4.47;4.00;;;17.20;3.20;;;;;;5094584;28;20669;-56
2023/06/24 00:23:14;;;;;;;4.47;4.10;;;17.20;1.00;;;;;;5094860;28;20223;-56
2023/06/24 00:25:44;;;;;;;4.73;4.33;;;17.20;17.40;;;;;;5100070;28;20221;-56
2023/06/24 00:28:12;;;;;;;4.67;4.27;;;17.20;6.30;;;;;;5091677;28;20207;-56
2023/06/24 00:30:40;;;;;;;4.13;3.93;;;17.20;3.00;;;;;;5089172;28;20231;-56
2023/06/24 00:33:11;;;;;;;4.17;3.73;;;17.20;1.00;;;;;;5089564;28;20192;-56
2023/06/24 00:35:39;;;;;;;4.70;4.30;;;17.20;1.00;;;;;;5099635;28;20310;-57
2023/06/24 00:38:08;;;;;;;4.23;4.03;;;17.20;1.00;;;;;;5094636;28;20219;-56
2023/06/24 00:40:36;;;;;;;4.40;4.00;;;17.20;1.00;;;;;;5090778;28;20212;-56
2023/06/24 00:43:07;;;;;;;4.60;4.20;;;17.20;1.00;;;;;;5088737;28;20215;-56
2023/06/24 00:45:36;;;;;;;4.17;3.87;;;17.20;1.00;;;;;;5086952;28;20218;-56
2023/06/24 00:48:04;;;;;;;4.73;4.43;;;17.20;1.00;;;;;;5092698;28;20245;-56
2023/06/24 00:50:33;;;;;;;4.87;4.40;;;17.20;1.00;;;;;;5093795;28;20829;-56
2023/06/24 00:53:01;;;;;;;4.57;4.23;;;17.10;1.00;;;;;;5082357;28;20236;-57
2023/06/24 00:55:30;;;;;;;5.77;4.37;;;17.10;1.00;;;;;;5092000;28;20219;-57
2023/06/24 00:57:59;;;;;;;4.33;4.03;;;17.00;1.00;;;;;;5093755;28;20215;-56
2023/06/24 01:00:29;;;;;;;4.80;4.37;;;16.90;1.00;;;;;;5091324;28;20207;-56
2023/06/24 01:02:58;;;;;;;5.10;4.70;;;16.90;1.00;;;;;;5092749;28;20332;-56
2023/06/24 01:05:27;;;;;;;4.40;4.00;;;16.80;2.00;;;;;;5094054;28;20306;-56
2023/06/24 01:07:56;;;;;;;4.53;4.23;;;16.70;10.60;;;;;;5093618;28;20214;-57
2023/06/24 01:10:25;;;;;;;4.53;4.23;;;16.70;19.10;;;;;;5093743;28;20227;-55
2023/06/24 01:12:54;;;;;;;5.57;4.93;;;16.60;33.50;;;;;;5089391;28;20778;-56
2023/06/24 01:15:23;;;;;;;5.13;4.70;;;16.50;43.50;;;;;;5090691;28;20205;-56
2023/06/24 01:17:59;;;;;;;5.50;5.00;;;16.50;47.30;;;;;;5093168;28;20201;-56
2023/06/24 01:20:33;;;;;;;5.10;4.70;;;16.40;57.40;;;;;;5086900;28;20272;-56
2023/06/24 01:23:33;;;;;;;4.63;4.37;;;16.40;65.70;;;;;;5089330;28;20210;-56
2023/06/24 01:26:21;;;;;;;5.10;4.80;;;16.30;58.30;;;;;;5091712;28;20304;-56
2023/06/24 01:29:22;;;;;;;5.13;4.67;;;16.30;52.30;;;;;;5092436;28;20304;-56
2023/06/24 01:31:54;;;;;;;5.47;4.70;;;16.20;58.50;;;;;;5091552;28;20250;-56
2023/06/24 01:34:26;;;;;;;5.20;4.70;;;16.10;42.50;;;;;;5088786;28;20221;-56
2023/06/24 01:37:03;;;;;;;5.10;4.70;;;16.10;59.10;;;;;;5089953;28;20303;-56
2023/06/24 01:39:34;;;;;;;5.77;4.77;;;16.00;66.80;;;;;;5091710;28;20210;-56
2023/06/24 01:42:09;;;;;;;5.20;4.80;;;16.00;63.60;;;;;;5088384;28;20194;-56
2023/06/24 01:44:40;;;;;;;5.60;5.07;;;16.00;57.10;;;;;;5085613;28;20229;-57
2023/06/24 01:47:12;;;;;;;8.30;5.00;;;15.90;54.80;;;;;;5085158;28;20220;-56
2023/06/24 01:49:43;;;;;;;9.83;4.70;;;15.90;54.30;;;;;;5091148;28;20302;-56
2023/06/24 01:52:12;;;;;;;5.90;5.40;;;15.90;56.30;;;;;;5072479;28;20219;-56
2023/06/24 01:54:43;;;;;;;5.27;4.70;;;15.80;60.80;;;;;;5090289;28;20235;-56
2023/06/24 01:57:13;;;;;;;5.03;4.53;;;15.80;59.50;;;;;;5093469;28;20203;-54
2023/06/24 01:59:46;;;;;;;5.50;5.10;;;15.80;70.50;;;;;;5089339;28;21659;-57
2023/06/24 02:02:19;;;;;;;5.13;4.60;;;15.80;80.70;;;;;;5091267;28;20213;-55
2023/06/24 02:04:49;;;;;;;5.30;4.80;;;15.70;88.20;;;;;;5090002;28;20239;-56
2023/06/24 02:07:19;;;;;;;4.83;4.53;;;15.60;82.60;;;;;;5092387;28;20219;-56
2023/06/24 02:09:48;;;;;;;5.17;4.70;;;15.60;94.70;;;;;;5088234;28;20298;-55
2023/06/24 02:12:17;;;;;;;4.90;4.50;;;15.50;92.50;;;;;;5089430;28;20190;-57
2023/06/24 02:14:45;;;;;;;5.23;4.83;;;15.50;99.90;;;;;;5071175;28;20198;-56
2023/06/24 02:17:15;;;;;;;6.70;4.67;;;15.40;99.90;;;;;;5080518;28;20222;-56
2023/06/24 02:19:44;;;;;;;4.67;4.27;;;15.40;98.10;;;;;;5099415;28;20218;-56
2023/06/24 02:22:13;;;;;;;4.87;4.47;;;15.30;98.80;;;;;;5091731;28;20223;-56
2023/06/24 02:24:42;;;;;;;8.03;4.97;;;15.30;99.90;;;;;;5092097;28;20232;-56
2023/06/24 02:27:12;;;;;;;5.83;5.07;;;15.20;99.10;;;;;;5082521;28;20205;-56
2023/06/24 02:29:41;;;;;;;5.80;5.27;;;15.20;99.90;;;;;;5089753;28;20211;-55
2023/06/24 02:32:10;;;;;;;6.30;5.10;;;15.20;98.40;;;;;;5087804;28;20217;-56
2023/06/24 02:34:40;;;;;;;6.93;5.57;;;15.20;97.90;;;;;;5084233;28;20304;-55
2023/06/24 02:37:08;;;;;;;8.30;5.17;;;15.20;98.70;;;;;;5090418;28;20240;-56
2023/06/24 02:39:43;;;;;;;5.13;4.73;;;15.20;97.00;;;;;;5073395;28;20221;-56
2023/06/24 02:42:12;;;;;;;5.23;4.73;;;15.30;99.10;;;;;;5086181;28;20192;-56
2023/06/24 02:44:42;;;;;;;4.90;4.60;;;15.30;99.90;;;;;;5092545;28;20291;-57
2023/06/24 02:47:13;;;;;;;5.43;4.93;;;15.30;96.00;;;;;;5086865;28;20229;-56
2023/06/24 02:49:47;;;;;;;6.90;5.63;;;15.20;99.00;;;;;;5087274;28;20307;-56
2023/06/24 02:52:16;;;;;;;7.00;5.03;;;15.20;94.50;;;;;;5091021;28;20215;-56
2023/06/24 02:54:45;;;;;;;6.03;5.40;;;15.20;96.20;;;;;;5091161;28;20228;-56
2023/06/24 02:57:15;;;;;;;8.97;5.37;;;15.20;95.40;;;;;;5087130;28;20637;-56
2023/06/24 02:59:44;;;;;;;6.63;5.63;;;15.30;90.90;;;;;;5070259;28;20198;-56
2023/06/24 03:02:13;;;;;;;6.17;5.57;;;15.30;91.00;;;;;;5076236;28;20576;-56
2023/06/24 03:04:42;;;;;;;5.77;5.27;;;15.30;85.60;;;;;;5087345;28;20701;-56
2023/06/24 03:07:11;;;;;;;6.70;5.13;;;15.30;81.00;;;;;;5097279;28;20238;-56
2023/06/24 03:09:40;;;;;;;11.07;5.70;;;15.30;90.10;;;;;;5091797;28;20273;-56
2023/06/24 03:12:09;;;;;;;5.90;5.40;;;15.30;88.50;;;;;;5085165;28;20211;-56
2023/06/24 03:14:38;;;;;;;6.47;5.40;;;15.30;90.80;;;;;;5090933;28;20206;-56
2023/06/24 03:17:06;;;;;;;6.10;5.50;;;15.20;88.00;;;;;;5091970;28;20218;-56
2023/06/24 03:19:34;;;;;;;7.87;6.23;;;15.20;90.60;;;;;;5090157;28;20713;-55
2023/06/24 03:22:04;;;;;;;6.97;5.67;;;15.20;87.30;;;;;;5063957;28;20219;-56
2023/06/24 03:24:33;;;;;;;6.47;5.87;;;15.20;87.70;;;;;;5076396;28;20217;-56
2023/06/24 03:27:01;;;;;;;5.77;5.17;;;15.20;88.00;;;;;;5087478;28;20186;-56
2023/06/24 03:29:29;;;;;;;6.00;5.47;;;15.20;86.40;;;;;;5087720;28;20885;-57
2023/06/24 03:31:57;;;;;;;9.33;5.80;;;15.20;90.00;;;;;;5087243;28;20216;-56
2023/06/24 03:34:26;;;;;;;6.40;5.80;;;15.20;91.00;;;;;;5088540;28;20664;-55
2023/06/24 03:36:55;;;;;;;6.47;5.23;;;15.20;92.60;;;;;;5090234;28;20270;-57
2023/06/24 03:39:25;;;;;;;7.63;6.10;;;15.10;93.40;;;;;;5099447;28;20297;-56
2023/06/24 03:41:54;;;;;;;6.20;5.67;;;15.10;95.10;;;;;;5094953;28;20188;-56
2023/06/24 03:44:22;;;;;;;8.73;6.00;;;15.20;94.20;;;;;;5092727;28;20233;-55
2023/06/24 03:46:50;;;;;;;6.77;5.73;;;15.10;97.40;;;;;;5094469;28;20323;-55
2023/06/24 03:49:18;;;;;;;6.10;5.60;;;15.10;99.90;;;;;;5095004;28;20222;-55
2023/06/24 03:51:47;;;;;;;7.90;5.77;;;15.10;99.90;;;;;;5095392;28;20216;-56
2023/06/24 03:54:15;;;;;;;6.63;5.23;;;15.10;99.90;;;;;;5095076;28;20224;-56
2023/06/24 03:56:45;;;;;;;7.40;5.70;;;15.10;99.90;;;;;;5089815;28;20193;-56
2023/06/24 03:59:13;;;;;;;7.77;5.53;;;15.00;99.90;;;;;;5091381;28;20588;-55
2023/06/24 04:01:42;;;;;;;6.07;5.50;;;15.00;99.90;;;;;;5093629;28;20219;-55
2023/06/24 04:04:10;;;;;;;7.73;5.73;;;15.00;99.90;;;;;;5093147;28;20222;-55
2023/06/24 04:06:38;;;;;;;6.00;4.90;;;15.10;99.90;;;;;;5091304;28;20234;-56
2023/06/24 04:09:09;;;;;;;7.13;5.47;;;15.10;99.90;;;;;;5095599;28;20191;-55
2023/06/24 04:11:37;;;;;;;5.60;5.00;;;15.10;99.90;;;;;;5094650;28;20221;-55
2023/06/24 04:14:09;;;;;;;7.30;5.87;;;15.10;98.10;;;;;;5093269;28;20721;-57
2023/06/24 04:16:37;;;;;;;6.90;5.73;;;15.10;99.20;;;;;;5092732;28;20247;-56
2023/06/24 04:19:06;;;;;;;5.90;5.30;;;15.10;98.70;;;;;;5090291;28;20300;-55
2023/06/24 04:21:34;;;;;;;7.23;5.80;;;15.20;98.20;;;;;;5094645;28;20224;-56
2023/06/24 04:24:03;;;;;;;5.93;5.33;;;15.20;99.90;;;;;;5094798;28;20192;-56
2023/06/24 04:26:31;;;;;;;6.30;5.53;;;15.20;99.90;;;;;;5092778;28;20699;-55
2023/06/24 04:29:00;;;;;;;6.70;5.80;;;15.20;99.90;;;;;;5091996;28;20215;-56
2023/06/24 04:31:29;;;;;;;6.53;5.87;;;15.20;99.90;;;;;;5092801;28;20303;-55
2023/06/24 04:33:57;;;;;;;6.10;5.60;;;15.20;99.90;;;;;;5093351;28;20209;-55
2023/06/24 04:36:26;;;;;;;6.40;5.70;;;15.30;99.90;;;;;;5073353;28;20673;-56
2023/06/24 04:38:54;;;;;;;8.90;5.60;;;15.40;99.90;;;;;;5091101;28;20221;-55
2023/06/24 04:41:22;;;;;;;6.57;5.97;;;15.50;99.60;;;;;;5086964;28;20227;-55
2023/06/24 04:43:51;;;;;;;6.83;5.50;;;15.50;99.90;;;;;;5091754;28;20314;-56
2023/06/24 04:46:19;;;;;;;6.40;5.70;;;15.60;98.50;;;;;;5092870;28;20227;-56
2023/06/24 04:48:49;;;;;;;9.13;5.40;;;15.60;96.10;;;;;;5089946;28;20272;-55
2023/06/24 04:51:17;;;;;;;7.23;5.40;;;15.70;95.40;;;;;;5092869;28;20191;-56
2023/06/24 04:53:45;;;;;;;6.63;5.90;;;15.80;93.30;;;;;;5094910;28;20233;-56
2023/06/24 04:56:13;;;;;;;5.93;5.03;;;15.90;92.10;;;;;;5090594;28;20215;-55
2023/06/24 04:58:42;;;;;;;5.63;5.13;;;15.90;74.90;;;;;;5093188;28;20244;-56
2023/06/24 05:01:11;;;;;;;5.73;5.17;;;16.00;69.80;;;;;;5086154;28;20217;-56
2023/06/24 05:03:39;;;;;;;5.17;4.67;;;16.10;64.50;;;;;;5091715;28;20232;-56
2023/06/24 05:06:09;;;;;;;5.50;5.10;;;16.20;58.00;;;;;;5089600;28;20214;-56
2023/06/24 05:08:37;;;;;;;5.50;5.00;;;16.20;57.90;;;;;;5091630;28;20216;-56
2023/06/24 05:11:05;;;;;;;5.20;4.80;;;16.40;44.50;;;;;;5089548;28;20226;-56
2023/06/24 05:13:33;;;;;;;5.27;4.87;;;16.40;38.40;;;;;;5093357;28;20221;-56
2023/06/24 05:16:02;;;;;;;5.30;4.90;;;16.50;37.30;;;;;;5091512;28;20686;-56
2023/06/24 05:18:30;;;;;;;5.50;5.10;;;16.60;41.40;;;;;;5090163;28;20196;-55
2023/06/24 05:20:58;;;;;;;5.20;4.70;;;16.70;31.50;;;;;;5094250;28;20194;-56
2023/06/24 05:23:28;;;;;;;5.40;4.90;;;16.80;35.60;;;;;;5091959;28;20218;-55
2023/06/24 05:25:56;;;;;;;6.00;5.00;;;16.90;35.30;;;;;;5091720;28;20218;-56
2023/06/24 05:28:25;;;;;;;5.57;5.00;;;17.00;26.00;;;;;;5089006;28;20212;-56
2023/06/24 05:30:53;;;;;;;5.90;5.30;;;17.10;26.10;;;;;;5091316;28;20218;-56
2023/06/24 05:33:21;;;;;;;5.87;5.30;;;17.10;28.90;;;;;;5088911;28;20206;-56
2023/06/24 05:35:50;;;;;;;9.27;5.53;;;17.20;20.50;;;;;;5086524;28;20194;-57
2023/06/24 05:38:19;;;;;;;5.87;5.00;;;17.30;28.60;;;;;;5091726;28;20569;-56
2023/06/24 05:40:48;;;;;;;7.10;5.27;;;17.50;1.00;;;;;;5092558;28;20233;-56
2023/06/24 05:43:17;;;;;;;5.77;5.17;;;17.60;6.90;;;;;;5090601;28;20565;-56
2023/06/24 05:45:45;;;;;;;8.27;5.80;;;17.60;12.40;;;;;;5091700;28;20237;-56
2023/06/24 05:48:15;;;;;;;7.67;5.50;;;17.60;3.30;;;;;;5091150;28;20542;-56
2023/06/24 05:50:43;;;;;;;6.13;5.40;;;17.60;1.00;;;;;;5091586;28;20211;-55
2023/06/24 05:53:11;;;;;;;7.40;6.00;;;17.70;1.00;;;;;;5090686;28;20229;-56
2023/06/24 05:55:40;;;;;;;8.10;5.60;;;17.70;1.00;;;;;;5089765;28;20302;-56
2023/06/24 05:58:09;;;;;;;6.00;5.47;;;17.70;18.30;;;;;;5083921;28;20294;-56
2023/06/24 06:00:38;;;;;;;6.07;5.50;;;17.90;24.00;;;;;;5087929;28;20227;-56
2023/06/24 06:03:06;;;;;;;7.33;5.33;;;18.00;7.80;;;;;;5088174;28;20772;-56
2023/06/24 06:05:34;;;;;;;6.70;5.53;;;18.00;1.70;;;;;;5081947;28;20558;-55
2023/06/24 06:08:03;;;;;;;7.63;5.57;;;18.20;9.80;;;;;;5089067;28;20249;-55
2023/06/24 06:10:32;;;;;;;5.40;4.90;;;18.40;8.10;;;;;;5089260;28;20226;-56
2023/06/24 06:13:00;;;;;;;5.07;4.63;;;18.50;1.00;;;;;;5090446;28;20215;-56
2023/06/24 06:15:29;;;;;;;6.30;5.70;;;18.50;1.00;;;;;;5086410;28;20206;-56
2023/06/24 06:17:58;;;;;;;5.83;5.10;;;18.50;1.00;;;;;;5083539;28;20282;-56
2023/06/24 06:20:26;;;;;;;5.90;5.40;;;18.60;1.00;;;;;;5089012;28;20306;-56
2023/06/24 06:22:54;;;;;;;5.33;4.90;;;18.80;13.20;;;;;;5085575;28;20306;-56
2023/06/24 06:25:23;;;;;;;5.73;5.13;;;19.10;1.00;;;;;;5089056;28;20593;-56
2023/06/24 06:27:51;;;;;;;5.60;5.17;;;19.10;1.00;;;;;;5091545;28;20221;-56
2023/06/24 06:30:20;;;;;;;7.60;5.10;;;19.20;1.00;;;;;;5087249;28;20196;-55
2023/06/24 06:32:50;;;;;;;6.17;5.40;;;19.20;1.00;;;;;;5069744;28;20661;-56
2023/06/24 06:35:19;;;;;;;5.63;4.83;;;19.40;1.00;;;;;;5089993;28;20218;-57
2023/06/24 06:37:52;;;;;;;5.43;4.97;;;19.50;1.00;;;;;;5086464;28;20215;-55
2023/06/24 06:40:24;;;;;;;6.80;5.30;;;19.60;1.00;;;;;;5073179;28;20257;-56
2023/06/24 06:42:52;;;;;;;5.33;4.83;;;19.90;1.00;;;;;;5085416;28;20219;-56
2023/06/24 06:45:20;;;;;;;4.70;4.40;;;19.90;1.00;;;;;;5087162;28;20187;-56
2023/06/24 06:47:51;;;;;;;4.80;4.30;;;19.80;1.00;;;;;;5067554;28;20217;-56
2023/06/24 06:50:19;;;;;;;5.00;4.20;;;19.80;1.00;;;;;;5084395;28;20644;-56
2023/06/24 06:52:47;;;;;;;6.13;4.40;;;19.80;1.00;;;;;;5082861;28;20245;-56
2023/06/24 06:55:16;;;;;;;6.13;4.73;;;19.90;1.00;;;;;;5073112;28;20211;-57
2023/06/24 06:57:44;;;;;;;4.63;4.33;;;19.90;1.00;;;;;;5087091;28;20310;-56
2023/06/24 07:00:13;;;;;;;5.10;4.60;;;19.90;1.00;;;;;;5071801;28;20211;-56
2023/06/24 07:02:43;;;;;;;5.37;4.77;;;20.10;1.00;;;;;;5092392;28;20191;-56
2023/06/24 07:05:12;;;;;;;5.07;4.57;;;20.10;1.00;;;;;;5090497;28;20211;-56
2023/06/24 07:07:45;;;;;;;5.93;4.97;;;20.10;1.00;;;;;;5070837;28;20704;-56
2023/06/24 07:10:15;;;;;;;4.73;4.27;;;20.20;1.00;;;;;;5084914;28;20210;-56
2023/06/24 07:12:43;;;;;;;4.83;4.50;;;20.30;1.00;;;;;;5092001;28;20215;-56
2023/06/24 07:15:11;;;;;;;4.53;4.23;;;20.30;1.00;;;;;;5096820;28;20191;-55
2023/06/24 07:17:41;;;;;;;5.13;4.40;;;20.40;1.00;;;;;;5075952;28;20585;-56
2023/06/24 07:20:12;;;;;;;8.87;4.77;;;20.40;1.00;;;;;;5095712;28;20212;-55
2023/06/24 07:22:40;;;;;;;5.47;4.70;;;20.50;1.00;;;;;;5095831;28;20222;-55
2023/06/24 07:25:09;;;;;;;4.83;4.43;;;20.60;1.00;;;;;;5092753;28;20214;-56
2023/06/24 07:27:37;;;;;;;4.57;4.27;;;20.60;1.00;;;;;;5086434;28;20246;-56
2023/06/24 07:30:06;;;;;;;5.63;4.67;;;20.70;1.00;;;;;;5090509;28;20230;-56
2023/06/24 07:32:35;;;;;;;4.93;4.53;;;20.70;1.00;;;;;;5092394;28;20223;-55
2023/06/24 07:35:03;;;;;;;5.20;4.70;;;20.70;1.00;;;;;;5094369;28;20227;-55
2023/06/24 07:37:33;;;;;;;4.77;4.47;;;20.90;1.00;;;;;;5092125;28;20230;-55
2023/06/24 07:40:02;;;;;;;4.83;4.43;;;21.30;1.00;;;;;;5075697;28;20726;-56
2023/06/24 07:42:30;;;;;;;4.73;4.30;;;21.30;1.00;;;;;;5095278;28;20195;-56
2023/06/24 07:44:58;;;;;;;4.70;4.30;;;21.30;1.00;;;;;;5096267;28;20195;-56
2023/06/24 07:47:27;;;;;;;4.57;4.20;;;21.30;1.00;;;;;;5094716;28;20215;-56
2023/06/24 07:49:55;;;;;;;4.43;4.03;;;21.30;1.00;;;;;;5093655;28;20290;-56
2023/06/24 07:52:23;;;;;;;5.20;4.73;;;21.50;1.00;;;;;;5094105;28;20608;-56
2023/06/24 07:54:54;;;;;;;4.97;4.60;;;21.80;1.00;;;;;;5094386;28;20219;-55
2023/06/24 07:57:22;;;;;;;5.00;3.93;;;21.80;1.00;;;;;;5093329;28;20184;-56
2023/06/24 07:59:50;;;;;;;4.27;3.93;;;22.00;1.00;;;;;;5095255;28;20210;-57
2023/06/24 08:02:19;;;;;;;4.27;4.00;;;22.20;1.00;;;;;;5095083;28;20219;-56
2023/06/24 08:04:47;;;;;;;4.33;3.97;;;22.30;1.00;;;;;;5093092;28;20645;-56
2023/06/24 08:07:16;;;;;;;4.33;3.80;;;22.40;1.00;;;;;;5094737;28;20217;-57
2023/06/24 08:09:44;;;;;;;4.33;3.97;;;22.40;1.00;;;;;;5094985;28;20581;-57
2023/06/24 08:12:14;;;;;;;5.33;4.10;;;22.50;1.00;;;;;;5095249;28;20196;-55
2023/06/24 08:14:42;;;;;;;4.73;4.23;;;22.40;1.00;;;;;;5087296;28;20318;-55
2023/06/24 08:17:10;;;;;;;5.83;4.17;;;22.60;1.00;;;;;;5093566;28;20213;-56
2023/06/24 08:19:39;;;;;;;4.47;4.03;;;22.90;1.00;;;;;;5091791;28;20227;-57
2023/06/24 08:22:07;;;;;;;3.80;3.60;;;23.00;1.00;;;;;;5089939;28;20221;-57
2023/06/24 08:24:35;;;;;;;4.30;3.60;;;23.00;99.90;;;;;;5094053;28;20295;-56
2023/06/24 08:27:04;;;;;;;4.00;3.77;;;22.80;99.90;;;;;;5093115;28;20302;-56
2023/06/24 08:29:34;;;;;;;5.30;4.00;;;22.70;99.90;;;;;;5086924;28;20259;-54
2023/06/24 08:32:02;;;;;;;4.77;4.33;;;22.80;1.00;;;;;;5093972;28;20222;-56
2023/06/24 08:34:30;;;;;;;4.07;3.67;;;23.00;1.00;;;;;;5087584;28;20217;-56
2023/06/24 08:36:59;;;;;;;5.53;3.67;;;23.10;1.00;;;;;;5089226;28;20231;-57
2023/06/24 08:39:27;;;;;;;4.73;3.73;;;23.20;1.00;;;;;;5089447;28;20205;-56
2023/06/24 08:41:55;;;;;;;3.67;3.43;;;23.40;1.00;;;;;;5075908;28;20188;-56
2023/06/24 08:44:24;;;;;;;4.17;3.87;;;23.50;1.00;;;;;;5067866;28;20218;-56
2023/06/24 08:46:53;;;;;;;4.10;3.67;;;23.70;1.00;;;;;;5088507;28;20224;-55
2023/06/24 08:49:29;;;;;;;3.63;3.33;;;23.80;1.00;;;;;;5094163;28;20223;-56
2023/06/24 08:52:03;;;;;;;3.93;3.63;;;24.00;1.00;;;;;;5090978;28;20217;-56
2023/06/24 08:54:34;;;;;;;3.13;3.03;;;24.00;1.00;;;;;;5092064;28;20222;-57
2023/06/24 08:57:07;;;;;;;3.10;3.00;;;23.90;95.30;;;;;;5085110;28;20190;-55
2023/06/24 08:59:38;;;;;;;3.60;2.67;;;23.80;1.00;;;;;;5093554;28;20302;-56
2023/06/24 09:02:08;;;;;;;2.87;2.77;;;24.00;1.00;;;;;;5075765;28;20302;-57
2023/06/24 09:04:37;;;;;;;2.50;2.40;;;24.00;1.00;;;;;;5093610;28;20222;-56
2023/06/24 09:07:05;;;;;;;3.00;2.50;;;24.30;99.90;;;;;;5091040;28;20628;-57
2023/06/24 09:09:44;;;;;;;3.37;3.00;;;24.40;1.00;;;;;;5089214;28;20223;-56
2023/06/24 09:12:15;;;;;;;2.87;2.77;;;24.40;1.00;;;;;;5091073;28;20187;-55
2023/06/24 09:14:50;;;;;;;3.50;2.67;;;24.40;1.00;;;;;;5091279;28;20646;-56
2023/06/24 09:17:22;;;;;;;2.80;2.60;;;24.60;28.90;;;;;;5093606;28;20215;-56
2023/06/24 09:19:51;;;;;;;3.67;2.50;;;24.60;76.70;;;;;;5092504;28;20222;-57
2023/06/24 09:22:20;;;;;;;2.10;2.03;;;24.80;99.90;;;;;;5083845;28;20217;-57
2023/06/24 09:24:50;;;;;;;2.10;2.00;;;25.10;99.90;;;;;;5086992;28;20211;-56
2023/06/24 09:27:20;;;;;;;2.40;2.20;;;25.00;99.90;;;;;;5092268;28;20227;-56
2023/06/24 09:29:48;;;;;;;2.67;2.47;;;24.90;99.90;;;;;;5085459;28;20674;-56
2023/06/24 09:32:20;;;;;;;5.13;2.37;;;25.00;99.90;;;;;;5088056;28;20219;-56
2023/06/24 09:34:49;;;;;;;2.20;2.20;;;25.30;1.00;;;;;;5088791;28;20292;-56
2023/06/24 09:37:23;;;;;;;3.50;2.30;;;25.40;99.90;;;;;;5088516;28;20221;-56
2023/06/24 09:39:52;;;;;;;3.00;2.10;;;25.60;1.00;;;;;;5090979;28;20298;-56
2023/06/24 09:42:23;;;;;;;2.30;2.20;;;25.80;1.00;;;;;;5086929;28;20200;-56
2023/06/24 09:44:55;;;;;;;1.87;1.87;;;26.00;1.00;;;;;;5087060;28;20326;-56
2023/06/24 09:47:27;;;;;;;2.23;2.13;;;25.90;1.00;;;;;;5087495;28;20664;-56
2023/06/24 09:49:55;;;;;;;2.30;2.00;;;25.60;1.00;;;;;;5091631;28;20269;-57
2023/06/24 09:52:29;;;;;;;2.97;2.27;;;25.50;1.00;;;;;;5089625;28;20219;-56
2023/06/24 09:54:59;;;;;;;2.23;2.23;;;25.50;1.00;;;;;;5087901;28;20562;-57
2023/06/24 09:57:35;;;;;;;2.37;2.20;;;25.70;34.00;;;;;;5090610;28;20195;-57
2023/06/24 10:00:04;;;;;;;2.10;2.10;;;25.90;1.00;;;;;;5087468;28;20201;-56
2023/06/24 10:02:35;;;;;;;2.40;2.30;;;26.20;1.00;;;;;;5072950;28;20215;-57
2023/06/24 10:05:04;;;;;;;2.43;2.23;;;26.30;1.00;;;;;;5087575;28;20216;-58
2023/06/24 10:07:33;;;;;;;2.00;1.90;;;26.60;99.90;;;;;;5090096;28;20223;-57
2023/06/24 10:10:04;;;;;;;2.13;2.03;;;26.50;1.00;;;;;;5087997;28;20310;-56
2023/06/24 10:12:32;;;;;;;2.40;2.30;;;26.40;92.00;;;;;;5089423;28;20226;-57
2023/06/24 10:15:01;;;;;;;2.27;2.17;;;26.40;99.90;;;;;;5071238;28;20197;-57
2023/06/24 10:17:31;;;;;;;2.30;2.20;;;26.50;99.90;;;;;;5089010;28;20219;-57
2023/06/24 10:20:05;;;;;;;2.43;2.27;;;26.60;1.00;;;;;;5081756;28;20712;-58
2023/06/24 10:22:33;;;;;;;2.47;2.27;;;26.70;99.90;;;;;;5091124;28;20681;-56
2023/06/24 10:25:02;;;;;;;2.50;2.40;;;26.70;3.50;;;;;;5090306;28;20658;-56
2023/06/24 10:27:33;;;;;;;2.33;2.23;;;26.80;1.00;;;;;;5092383;28;20224;-57
2023/06/24 10:30:05;;;;;;;2.10;2.00;;;26.80;99.90;;;;;;5090911;28;20562;-56
2023/06/24 10:32:42;;;;;;;2.23;2.20;;;27.10;59.30;;;;;;5069943;28;20216;-57
2023/06/24 10:35:24;;;;;;;2.17;2.07;;;27.00;99.90;;;;;;5086229;28;20565;-57
2023/06/24 10:37:57;;;;;;;2.13;1.90;;;26.90;99.90;;;;;;5091540;28;20219;-57
2023/06/24 10:40:39;;;;;;;2.60;2.50;;;26.80;70.70;;;;;;5090958;28;20223;-57
2023/06/24 10:43:27;;;;;;;2.70;2.50;;;26.90;99.90;;;;;;5091267;28;20212;-57
2023/06/24 10:45:57;;;;;;;2.28;2.17;;;27.10;72.50;;;;;;5082629;28;20224;-58
2023/06/24 10:48:25;;;;;;;2.30;2.20;;;27.30;99.90;;;;;;5086517;28;20203;-57
2023/06/24 10:50:55;;;;;;;2.57;2.47;;;27.40;99.90;;;;;;5091698;28;20206;-56
2023/06/24 10:53:23;;;;;;;2.17;2.08;;;27.50;1.00;;;;;;5090831;28;20236;-57
2023/06/24 10:55:51;;;;;;;2.28;2.00;;;27.50;1.00;;;;;;5089436;28;20587;-56
2023/06/24 10:58:20;;;;;;;2.05;1.88;;;27.50;99.90;;;;;;5092094;28;20726;-56
2023/06/24 11:00:49;;;;;;;1.77;1.77;;;27.70;1.00;;;;;;5091519;28;20223;-57
2023/06/24 11:03:19;;;;;;;1.52;1.52;;;27.80;1.00;;;;;;5090782;28;20262;-57
2023/06/24 11:05:49;;;;;;;1.90;1.80;;;27.70;99.90;;;;;;5091958;28;20193;-58
2023/06/24 11:08:19;;;;;;;1.55;1.55;;;27.80;99.90;;;;;;5082073;28;20764;-56
2023/06/24 11:10:48;;;;;;;1.75;1.75;;;27.80;99.90;;;;;;5086936;28;20217;-56
2023/06/24 11:13:16;;;;;;;1.55;1.55;;;27.60;28.20;;;;;;5090303;28;20354;-56
2023/06/24 11:15:44;;;;;;;2.17;2.08;;;27.60;1.00;;;;;;5089797;28;20221;-56
2023/06/24 11:18:13;;;;;;;1.70;1.70;;;27.80;99.90;;;;;;5086674;28;20192;-56
2023/06/24 11:20:42;;;;;;;1.90;1.80;;;27.80;1.00;;;;;;5090903;28;20219;-57
2023/06/24 11:23:13;;;;;;;1.67;1.67;;;27.70;1.00;;;;;;5084097;28;20217;-57
2023/06/24 11:25:43;;;;;;;1.88;1.88;;;27.70;1.00;;;;;;5090281;28;20233;-57
2023/06/24 11:28:16;;;;;;;1.83;1.73;;;27.80;99.90;;;;;;5090865;28;20632;-57
2023/06/24 11:30:49;;;;;;;1.67;1.67;;;27.80;1.00;;;;;;5088198;28;20252;-56
2023/06/24 11:33:27;;;;;;;2.35;1.40;;;27.90;99.90;;;;;;5089509;28;20616;-57
2023/06/24 11:35:56;;;;;;;2.35;1.70;;;27.90;99.90;;;;;;5091114;28;20193;-56
2023/06/24 11:38:31;;;;;;;1.70;1.60;;;28.00;96.10;;;;;;5083441;28;20308;-57
2023/06/24 11:41:01;;;;;;;1.70;1.70;;;28.00;99.10;;;;;;5091852;28;20228;-57
2023/06/24 11:43:30;;;;;;;1.60;1.60;;;28.20;99.90;;;;;;5091597;28;20213;-57
2023/06/24 11:45:58;;;;;;;1.60;1.60;;;28.20;99.90;;;;;;5091207;28;20245;-57
2023/06/24 11:48:29;;;;;;;1.70;1.60;;;28.20;99.90;;;;;;5091651;28;20197;-57
2023/06/24 11:50:58;;;;;;;1.92;1.83;;;28.20;99.90;;;;;;5091373;28;20732;-56
2023/06/24 11:53:43;;;;;;;2.10;1.80;;;28.20;99.90;;;;;;5090465;28;20328;-57
2023/06/24 11:56:13;;;;;;;1.50;1.50;;;28.30;99.90;;;;;;5091326;28;20225;-57
2023/06/24 11:58:43;;;;;;;3.43;1.90;;;28.30;99.90;;;;;;5093909;28;20209;-57
2023/06/24 12:01:12;;;;;;;2.00;1.90;;;28.30;99.90;;;;;;5094060;28;20237;-57
2023/06/24 12:03:42;;;;;;;2.13;2.03;;;28.40;99.90;;;;;;5087942;28;20266;-57
2023/06/24 12:06:10;;;;;;;2.17;1.95;;;28.50;99.90;;;;;;5093069;28;20284;-56
2023/06/24 12:08:41;;;;;;;1.80;1.80;;;28.60;99.90;;;;;;5085275;28;21148;-57
2023/06/24 12:11:20;;;;;;;1.70;1.70;;;28.60;99.90;;;;;;5093203;28;20219;-57
2023/06/24 12:13:49;;;;;;;2.38;2.33;;;28.60;99.90;;;;;;5094280;28;20232;-57
2023/06/24 12:16:17;;;;;;;2.20;2.10;;;28.60;99.90;;;;;;5091521;28;20231;-57
2023/06/24 12:19:04;;;;;;;2.67;2.05;;;28.70;99.90;;;;;;5093785;28;20222;-56
2023/06/24 12:21:33;;;;;;;2.20;2.20;;;28.50;99.90;;;;;;5092761;28;20553;-57
2023/06/24 12:24:01;;;;;;;2.53;2.40;;;28.60;99.90;;;;;;5092691;28;20195;-56
2023/06/24 12:26:32;;;;;;;2.08;2.08;;;28.70;99.90;;;;;;5094201;28;20234;-56
2023/06/24 12:29:00;;;;;;;2.40;2.30;;;28.60;99.90;;;;;;5083214;28;20218;-56
2023/06/24 12:31:28;;;;;;;2.10;2.00;;;28.60;99.90;;;;;;5094288;28;20231;-56
2023/06/24 12:33:57;;;;;;;3.10;2.40;;;28.80;99.90;;;;;;5094682;28;20220;-56
2023/06/24 12:36:25;;;;;;;2.20;2.20;;;28.80;99.90;;;;;;5094779;28;20209;-56
2023/06/24 12:38:53;;;;;;;5.18;2.50;;;28.80;99.90;;;;;;5095556;28;20192;-56
2023/06/24 12:41:21;;;;;;;2.83;2.63;;;28.80;99.90;;;;;;5092910;28;20636;-56
2023/06/24 12:43:51;;;;;;;2.40;2.30;;;28.80;99.90;;;;;;5094879;28;20229;-56
2023/06/24 12:46:19;;;;;;;3.53;2.40;;;28.90;99.90;;;;;;5095068;28;20222;-57
2023/06/24 12:48:48;;;;;;;2.60;2.40;;;28.90;99.90;;;;;;5094408;28;20220;-57
2023/06/24 12:51:16;;;;;;;2.75;2.63;;;28.90;99.90;;;;;;5094932;28;20217;-56
2023/06/24 12:53:44;;;;;;;2.60;2.40;;;28.90;99.90;;;;;;5095095;28;20230;-57
2023/06/24 12:56:12;;;;;;;3.50;2.38;;;28.90;99.90;;;;;;5083812;28;20561;-56
2023/06/24 12:58:41;;;;;;;3.42;2.40;;;28.90;99.90;;;;;;5086836;28;20222;-56
2023/06/24 13:01:14;;;;;;;2.60;2.40;;;29.00;99.90;;;;;;5094180;28;20290;-57
2023/06/24 13:03:44;;;;;;;2.55;2.45;;;29.00;99.90;;;;;;5094754;28;20228;-56